Portada
METAR-TAF:

METAR-TAF

Aeropuertos :

Aeropuerto Internacional de El Arish

El Arish, Egipto

latitud: 31-05N, longitud: 033-49E, altitud: 31 m

METAR: falta

Hora: 10:57 (08:57 UTC)

Pronóstico

El informe se hizo hace 3 horas y 57 minutos, a las 05:00 UTC
Pronóstico válido del 06 a las 06 UTC al 07 a las 12 UTC
Viento 8 kt del norte-noroeste
Visibilidad 10 km o más
Nubes dispersas a una altura de 2500 ft
Evolucionando progresivamente
del 06 a las 16 UTC al 06 a las 18 UTC
Viento 3 kt con dirección variable
Evolucionando progresivamente
del 07 a las 06 UTC al 07 a las 08 UTC
Viento 8 kt del norte-noroeste

TAF: HEAR 060500Z 0606/0712 34008KT 9999 SCT025 BECMG 0616/0618 VRB03KT BECMG 0706/0708 33008KT

Observaciones y pronósticos meteorológicos de más de 4000 aeropuertos (mensajes METAR y TAF).

Los puntos amarillos y rojos representan las estaciones disponibles.

Ponga el ratón en el punto deseado para ver el nombre de la estación.

Haga clic para ver las observaciones y los pronósticos meteorológicos.

Para cambiar el mapa : haga clic en los botones verdes con una cruz de color negro para hacer un zoom, en el botón verde con un guión para alejar o en las flechas verdes para mapas adyacentes.


METAR-TAF: